createdAt,value
2018-06-13T00:00:41.088Z,4.53
2018-06-13T00:03:10.360Z,4.33
2018-06-13T00:05:40.396Z,4.47
2018-06-13T00:08:09.624Z,4.70
2018-06-13T00:10:38.838Z,4.77
2018-06-13T00:13:08.120Z,4.70
2018-06-13T00:15:37.376Z,4.30
2018-06-13T00:18:07.572Z,4.87
2018-06-13T00:20:36.832Z,4.30
2018-06-13T00:23:06.079Z,4.60
2018-06-13T00:25:35.303Z,4.23
2018-06-13T00:28:04.940Z,4.10
2018-06-13T00:30:34.177Z,3.90
2018-06-13T00:33:03.424Z,3.87
2018-06-13T00:35:32.688Z,4.20
2018-06-13T00:38:02.960Z,4.57
2018-06-13T00:40:32.180Z,4.30
2018-06-13T00:43:01.424Z,4.47
2018-06-13T00:45:31.261Z,3.83
2018-06-13T00:48:00.492Z,4.33
2018-06-13T00:50:29.815Z,4.93
2018-06-13T00:52:59.052Z,4.07
2018-06-13T00:55:28.268Z,4.60
2018-06-13T00:57:58.159Z,4.67
2018-06-13T01:00:27.689Z,3.93
2018-06-13T01:02:56.930Z,3.90
2018-06-13T01:05:26.215Z,4.40
2018-06-13T01:07:55.796Z,4.10
2018-06-13T01:10:25.016Z,4.97
2018-06-13T01:12:54.688Z,4.00
2018-06-13T01:15:23.903Z,4.30
2018-06-13T01:17:53.104Z,4.37
2018-06-13T01:20:22.372Z,4.10
2018-06-13T01:22:51.603Z,3.90
2018-06-13T01:25:20.812Z,3.80
2018-06-13T01:27:50.072Z,4.10
2018-06-13T01:30:19.380Z,4.23
2018-06-13T01:32:48.275Z,4.70
2018-06-13T01:35:17.626Z,4.53
2018-06-13T01:37:46.856Z,3.80
2018-06-13T01:40:16.073Z,3.80
2018-06-13T01:42:45.328Z,3.93
2018-06-13T01:45:14.553Z,4.33
2018-06-13T01:47:43.975Z,3.97
2018-06-13T01:50:13.213Z,4.40
2018-06-13T01:52:43.036Z,4.50
2018-06-13T01:55:12.270Z,4.10
2018-06-13T01:57:41.812Z,4.80
2018-06-13T02:00:11.031Z,4.10
2018-06-13T02:02:40.256Z,4.30
2018-06-13T02:05:09.486Z,4.60
2018-06-13T02:07:38.720Z,5.20
2018-06-13T02:10:08.585Z,4.73
2018-06-13T02:12:37.844Z,5.73
2018-06-13T02:15:07.168Z,5.53
2018-06-13T02:17:36.428Z,5.47
2018-06-13T02:20:05.866Z,5.50
2018-06-13T02:22:35.104Z,6.03
2018-06-13T02:25:04.568Z,5.30
2018-06-13T02:27:33.800Z,5.80
2018-06-13T02:30:03.199Z,6.20
2018-06-13T02:32:32.509Z,5.10
2018-06-13T02:35:01.769Z,5.70
2018-06-13T02:37:30.985Z,6.30
2018-06-13T02:40:00.212Z,6.20
2018-06-13T02:42:29.748Z,5.90
2018-06-13T02:44:58.988Z,6.40
2018-06-13T02:47:28.217Z,6.50
2018-06-13T02:49:57.749Z,6.40
2018-06-13T02:52:26.960Z,6.10
2018-06-13T02:54:56.175Z,6.50
2018-06-13T02:57:25.413Z,6.30
2018-06-13T02:59:55.560Z,6.97
2018-06-13T03:02:24.783Z,5.50
2018-06-13T03:04:54.169Z,6.50
2018-06-13T03:07:23.413Z,6.83
2018-06-13T03:09:52.644Z,6.47
2018-06-13T03:12:22.000Z,6.67
2018-06-13T03:14:51.117Z,7.00
2018-06-13T03:17:20.345Z,6.53
2018-06-13T03:19:49.597Z,6.90
2018-06-13T03:22:18.838Z,6.97
2018-06-13T03:24:48.081Z,7.10
2018-06-13T03:27:17.798Z,6.40
2018-06-13T03:29:47.684Z,6.57
2018-06-13T03:32:16.915Z,6.83
2018-06-13T03:34:46.136Z,6.37
2018-06-13T03:37:15.359Z,6.40
2018-06-13T03:39:44.576Z,7.53
2018-06-13T03:42:13.837Z,7.47
2018-06-13T03:44:43.056Z,6.87
2018-06-13T03:47:12.278Z,6.47
2018-06-13T03:49:41.590Z,7.07
2018-06-13T03:52:10.828Z,7.17
2018-06-13T03:54:40.061Z,6.80
2018-06-13T03:57:09.355Z,7.77
2018-06-13T03:59:38.570Z,6.93
2018-06-13T04:02:07.791Z,7.20
2018-06-13T04:04:37.054Z,7.10
2018-06-13T04:07:06.472Z,7.40
2018-06-13T04:09:35.672Z,6.70
2018-06-13T04:12:05.512Z,6.70
2018-06-13T04:14:35.246Z,7.60
2018-06-13T04:17:04.451Z,7.20
2018-06-13T04:19:33.705Z,8.07
2018-06-13T04:22:02.933Z,7.20
2018-06-13T04:24:32.140Z,7.20
2018-06-13T04:27:01.421Z,6.60
2018-06-13T04:29:30.678Z,7.20
2018-06-13T04:31:59.936Z,6.40
2018-06-13T04:34:29.541Z,7.13
2018-06-13T04:36:58.768Z,6.73
2018-06-13T04:39:27.985Z,7.00
2018-06-13T04:41:57.471Z,7.70
2018-06-13T04:44:26.712Z,8.10
2018-06-13T04:46:56.146Z,7.50
2018-06-13T04:49:25.387Z,6.67
2018-06-13T04:51:54.605Z,8.10
2018-06-13T04:54:23.838Z,8.27
2018-06-13T04:56:53.131Z,7.60
2018-06-13T04:59:22.433Z,7.40
2018-06-13T05:01:51.668Z,6.70
2018-06-13T05:04:20.945Z,7.50
2018-06-13T05:06:50.238Z,7.40
2018-06-13T05:09:19.497Z,7.10
2018-06-13T05:11:48.804Z,8.03
2018-06-13T05:14:18.029Z,7.20
2018-06-13T05:16:47.662Z,8.27
2018-06-13T05:19:17.249Z,7.70
2018-06-13T05:21:46.666Z,7.80
2018-06-13T05:24:15.895Z,7.90
2018-06-13T05:26:45.144Z,8.20
2018-06-13T05:29:14.369Z,8.60
2018-06-13T05:31:43.758Z,7.90
2018-06-13T05:34:13.008Z,7.93
2018-06-13T05:36:41.934Z,8.00
2018-06-13T05:39:11.024Z,6.80
2018-06-13T05:41:40.671Z,7.27
2018-06-13T05:44:10.162Z,7.47
2018-06-13T05:46:39.396Z,7.37
2018-06-13T05:49:08.664Z,8.03
2018-06-13T05:51:37.881Z,7.90
2018-06-13T05:54:07.868Z,8.30
2018-06-13T05:56:37.128Z,7.47
2018-06-13T05:59:06.488Z,7.40
2018-06-13T06:01:35.701Z,7.33
2018-06-13T06:04:05.292Z,7.93
2018-06-13T06:06:34.537Z,7.73
2018-06-13T06:09:04.408Z,7.63
2018-06-13T06:11:33.605Z,6.63
2018-06-13T06:14:02.834Z,6.80
2018-06-13T06:16:32.073Z,7.47
2018-06-13T06:19:01.781Z,6.77
2018-06-13T06:21:31.007Z,7.33
2018-06-13T06:24:00.272Z,6.60
2018-06-13T06:26:29.911Z,6.47
2018-06-13T06:28:59.120Z,6.23
2018-06-13T06:31:28.582Z,6.80
2018-06-13T06:33:57.817Z,6.50
2018-06-13T06:36:27.044Z,6.00
2018-06-13T06:38:56.361Z,6.20
2018-06-13T06:41:25.623Z,6.77
2018-06-13T06:43:54.845Z,6.03
2018-06-13T06:46:24.070Z,6.10
2018-06-13T06:48:53.392Z,5.77
2018-06-13T06:51:22.623Z,5.30
2018-06-13T06:53:51.832Z,5.17
2018-06-13T06:56:21.088Z,5.13
2018-06-13T06:58:50.305Z,4.80
2018-06-13T07:01:19.542Z,4.87
2018-06-13T07:03:48.804Z,4.80
2018-06-13T07:06:18.037Z,3.80
2018-06-13T07:08:47.248Z,4.03
2018-06-13T07:11:16.708Z,4.13
2018-06-13T07:13:45.941Z,3.83
2018-06-13T07:16:15.152Z,4.10
2018-06-13T07:18:45.908Z,4.23
2018-06-13T07:21:15.645Z,4.37
2018-06-13T07:23:44.844Z,4.43
2018-06-13T07:26:14.093Z,3.77
2018-06-13T07:28:43.320Z,3.47
2018-06-13T07:31:12.214Z,3.33
2018-06-13T07:33:41.657Z,7.20
2018-06-13T07:36:10.964Z,3.80
2018-06-13T07:38:40.912Z,3.87
2018-06-13T07:41:10.275Z,3.10
2018-06-13T07:43:40.656Z,3.50
2018-06-13T07:46:10.439Z,3.67
2018-06-13T07:48:39.577Z,3.10
2018-06-13T07:51:08.852Z,3.20
2018-06-13T07:53:38.416Z,3.60
2018-06-13T07:56:07.692Z,3.00
2018-06-13T07:58:37.301Z,2.73
2018-06-13T08:01:06.608Z,3.80
2018-06-13T08:03:35.960Z,2.60
2018-06-13T08:06:05.229Z,2.70
2018-06-13T08:08:35.037Z,2.73
2018-06-13T08:11:05.265Z,2.70
2018-06-13T08:13:34.608Z,2.50
2018-06-13T08:16:03.829Z,2.70
2018-06-13T08:18:34.877Z,2.67
2018-06-13T08:21:04.116Z,2.30
2018-06-13T08:23:33.615Z,2.80
2018-06-13T08:26:02.881Z,2.47
2018-06-13T08:28:32.232Z,2.57
2018-06-13T08:31:02.062Z,2.33
2018-06-13T08:33:31.369Z,2.17
2018-06-13T08:36:00.604Z,2.07
2018-06-13T08:38:29.988Z,2.40
2018-06-13T08:40:59.436Z,2.50
2018-06-13T08:43:28.764Z,2.00
2018-06-13T08:45:57.973Z,2.43
2018-06-13T08:48:27.344Z,2.50
2018-06-13T08:50:57.788Z,1.80
2018-06-13T08:53:27.008Z,2.00
2018-06-13T08:55:56.929Z,1.70
2018-06-13T08:58:26.732Z,2.00
2018-06-13T09:00:56.081Z,1.90
2018-06-13T09:03:25.612Z,2.00
2018-06-13T09:05:54.840Z,1.97
2018-06-13T09:08:24.116Z,1.63
2018-06-13T09:10:53.405Z,1.73
2018-06-13T09:13:22.633Z,1.80
2018-06-13T09:15:52.697Z,1.97
2018-06-13T09:18:21.953Z,1.80
2018-06-13T09:20:52.089Z,2.20
2018-06-13T09:23:21.376Z,1.93
2018-06-13T09:25:51.376Z,1.70
2018-06-13T09:28:21.212Z,1.90
2018-06-13T09:30:50.440Z,2.00
2018-06-13T09:33:19.731Z,1.90
2018-06-13T09:35:48.644Z,2.00
2018-06-13T09:38:17.804Z,1.87
2018-06-13T09:40:47.058Z,2.13
2018-06-13T09:43:16.282Z,2.40
2018-06-13T09:45:45.528Z,2.50
2018-06-13T09:48:15.374Z,2.10
2018-06-13T09:50:44.587Z,2.50
2018-06-13T09:53:13.800Z,2.03
2018-06-13T09:55:43.093Z,2.00
2018-06-13T09:58:12.312Z,1.90
2018-06-13T10:00:52.361Z,1.87
2018-06-13T10:03:21.632Z,2.10
2018-06-13T10:05:50.892Z,2.03
2018-06-13T10:08:20.427Z,2.33
2018-06-13T10:10:49.673Z,2.17
2018-06-13T10:13:18.873Z,2.20
2018-06-13T10:15:48.172Z,2.10
2018-06-13T10:18:17.388Z,1.97
2018-06-13T10:20:46.604Z,2.00
2018-06-13T10:23:15.943Z,1.77
2018-06-13T10:25:45.210Z,2.10
2018-06-13T10:28:20.648Z,1.80
2018-06-13T10:30:49.901Z,2.00
2018-06-13T10:33:19.156Z,2.13
2018-06-13T10:35:48.441Z,2.00
2018-06-13T10:38:17.733Z,1.97
2018-06-13T10:40:46.988Z,2.60
2018-06-13T10:43:16.287Z,2.43
2018-06-13T10:45:45.501Z,2.63
2018-06-13T10:48:16.007Z,2.00
2018-06-13T10:50:45.328Z,2.00
2018-06-13T10:53:14.664Z,2.23
2018-06-13T10:55:43.891Z,2.23
2018-06-13T10:58:13.137Z,2.20
2018-06-13T11:00:42.378Z,2.03
2018-06-13T11:03:11.896Z,2.40
2018-06-13T11:05:41.124Z,2.47
2018-06-13T11:08:11.398Z,2.77
2018-06-13T11:10:40.924Z,2.30
2018-06-13T11:13:10.585Z,2.20
2018-06-13T11:15:39.816Z,2.30
2018-06-13T11:18:09.145Z,2.73
2018-06-13T11:20:39.073Z,1.93
2018-06-13T11:23:08.442Z,2.00
2018-06-13T11:25:37.900Z,2.20
2018-06-13T11:28:07.212Z,2.10
2018-06-13T11:30:36.312Z,2.20
2018-06-13T11:33:05.866Z,2.10
2018-06-13T11:35:35.080Z,1.90
2018-06-13T11:38:04.335Z,1.87
2018-06-13T11:40:33.877Z,1.57
2018-06-13T11:43:03.136Z,1.90
2018-06-13T11:45:32.489Z,1.80
2018-06-13T11:48:01.804Z,1.80
2018-06-13T11:50:31.000Z,2.17
2018-06-13T11:53:00.249Z,2.13
2018-06-13T11:55:29.831Z,1.97
2018-06-13T11:57:58.868Z,2.70
2018-06-13T12:00:28.620Z,2.33
2018-06-13T12:02:57.945Z,2.40
2018-06-13T12:05:28.181Z,2.17
2018-06-13T12:07:57.397Z,1.83
2018-06-13T12:10:26.710Z,2.00
2018-06-13T12:12:55.936Z,2.40
2018-06-13T12:15:25.160Z,2.10
2018-06-13T12:17:54.815Z,1.80
2018-06-13T12:20:24.045Z,2.00
2018-06-13T12:22:53.937Z,1.80
2018-06-13T12:25:23.235Z,1.57
2018-06-13T12:27:53.023Z,1.77
2018-06-13T12:30:22.405Z,1.70
2018-06-13T12:32:52.040Z,2.00
2018-06-13T12:35:21.304Z,1.90
2018-06-13T12:37:51.885Z,2.17
2018-06-13T12:40:21.971Z,1.80
2018-06-13T12:42:51.547Z,2.17
2018-06-13T12:45:21.624Z,1.80
2018-06-13T12:47:51.446Z,1.83
2018-06-13T12:50:20.801Z,2.10
2018-06-13T12:52:50.061Z,1.80
2018-06-13T12:55:19.319Z,1.80
2018-06-13T12:57:48.561Z,1.90
2018-06-13T13:00:18.660Z,2.00
2018-06-13T13:02:48.244Z,1.60
2018-06-13T13:05:17.516Z,2.03
2018-06-13T13:07:47.409Z,1.70
2018-06-13T13:10:16.835Z,1.77
2018-06-13T13:12:47.540Z,1.70
2018-06-13T13:15:18.048Z,1.80
2018-06-13T13:17:47.284Z,1.73
2018-06-13T13:20:16.562Z,1.53
2018-06-13T13:22:46.461Z,1.47
2018-06-13T13:25:15.729Z,1.67
2018-06-13T13:27:44.622Z,1.33
2018-06-13T13:30:13.782Z,1.60
2018-06-13T13:32:43.048Z,1.70
2018-06-13T13:35:12.818Z,1.93
2018-06-13T13:37:42.221Z,1.73
2018-06-13T13:40:11.472Z,1.53
2018-06-13T13:42:40.696Z,1.80
2018-06-13T13:45:10.134Z,1.70
2018-06-13T13:47:39.408Z,1.57
2018-06-13T13:50:11.636Z,1.40
2018-06-13T13:52:41.033Z,1.70
2018-06-13T13:55:11.593Z,1.40
2018-06-13T13:57:41.496Z,1.60
2018-06-13T14:00:11.319Z,2.00
2018-06-13T14:02:40.553Z,1.70
2018-06-13T14:05:10.049Z,1.80
2018-06-13T14:07:39.330Z,1.50
2018-06-13T14:10:09.212Z,1.77
2018-06-13T14:12:41.360Z,1.60
2018-06-13T14:15:13.508Z,1.70
2018-06-13T14:17:42.752Z,1.50
2018-06-13T14:20:12.674Z,1.53
2018-06-13T14:22:41.973Z,1.70
2018-06-13T14:25:11.572Z,1.63
2018-06-13T14:27:40.788Z,1.60
2018-06-13T14:30:10.013Z,1.33
2018-06-13T14:32:39.256Z,2.27
2018-06-13T14:35:09.494Z,1.70
2018-06-13T14:37:39.172Z,1.27
2018-06-13T14:40:09.795Z,2.30
2018-06-13T14:42:39.883Z,1.80
2018-06-13T14:45:09.749Z,1.50
2018-06-13T14:47:39.425Z,1.70
2018-06-13T14:50:09.083Z,1.30
2018-06-13T14:52:38.384Z,1.50
2018-06-13T14:55:07.984Z,2.03
2018-06-13T14:57:37.240Z,1.80
2018-06-13T15:00:07.228Z,1.37
2018-06-13T15:02:39.797Z,1.60
2018-06-13T15:05:09.048Z,2.47
2018-06-13T15:07:38.413Z,1.70
2018-06-13T15:10:08.225Z,1.87
2018-06-13T15:12:37.627Z,1.57
2018-06-13T15:15:06.922Z,1.73
2018-06-13T15:17:36.240Z,1.50
2018-06-13T15:20:06.828Z,1.97
2018-06-13T15:22:36.056Z,1.70
2018-06-13T15:25:05.392Z,2.00
2018-06-13T15:27:34.670Z,1.80
2018-06-13T15:30:04.638Z,1.70
2018-06-13T15:32:33.977Z,1.90
2018-06-13T15:35:03.312Z,2.00
2018-06-13T15:37:32.536Z,1.70
2018-06-13T15:40:03.199Z,1.70
2018-06-13T15:42:32.640Z,1.70
2018-06-13T15:45:01.897Z,1.83
2018-06-13T15:47:31.156Z,1.93
2018-06-13T15:50:00.459Z,1.60
2018-06-13T15:52:30.482Z,1.33
2018-06-13T15:54:59.776Z,1.77
2018-06-13T15:57:29.364Z,1.30
2018-06-13T15:59:58.650Z,1.70
2018-06-13T16:02:27.945Z,1.40
2018-06-13T16:04:57.180Z,1.70
2018-06-13T16:07:26.400Z,1.70
2018-06-13T16:09:55.394Z,2.17
2018-06-13T16:12:24.496Z,1.37
2018-06-13T16:14:54.389Z,2.07
2018-06-13T16:17:24.243Z,1.73
2018-06-13T16:19:53.628Z,1.97
2018-06-13T16:22:22.948Z,1.90
2018-06-13T16:24:52.669Z,1.60
2018-06-13T16:27:21.938Z,1.40
2018-06-13T16:29:51.169Z,1.60
2018-06-13T16:32:20.468Z,2.17
2018-06-13T16:34:49.717Z,1.30
2018-06-13T16:37:18.970Z,1.30
2018-06-13T16:39:48.991Z,1.50
2018-06-13T16:42:18.306Z,1.67
2018-06-13T16:44:47.668Z,1.93
2018-06-13T16:47:17.168Z,1.50
2018-06-13T16:49:46.514Z,1.50
2018-06-13T16:52:26.828Z,1.80
2018-06-13T16:55:28.936Z,1.73
2018-06-13T16:57:58.435Z,2.03
2018-06-13T17:00:27.908Z,1.43
2018-06-13T17:02:57.134Z,2.20
2018-06-13T17:05:26.380Z,2.10
2018-06-13T17:07:55.280Z,1.73
2018-06-13T17:10:24.500Z,1.47
2018-06-13T17:12:53.768Z,1.40
2018-06-13T17:15:23.075Z,2.10
2018-06-13T17:17:52.468Z,1.90
2018-06-13T17:20:21.864Z,1.93
2018-06-13T17:22:51.083Z,1.40
2018-06-13T17:25:20.320Z,1.97
2018-06-13T17:27:49.611Z,2.20
2018-06-13T17:30:18.833Z,1.70
2018-06-13T17:32:48.202Z,1.60
2018-06-13T17:35:17.502Z,2.30
2018-06-13T17:37:46.700Z,1.77
2018-06-13T17:40:16.716Z,1.70
2018-06-13T17:42:46.026Z,2.37
2018-06-13T17:45:16.136Z,2.10
2018-06-13T17:47:45.137Z,2.20
2018-06-13T17:50:14.280Z,2.13
2018-06-13T17:52:45.664Z,1.97
2018-06-13T17:55:15.045Z,1.90
2018-06-13T17:57:44.283Z,2.07
2018-06-13T18:00:13.518Z,2.00
2018-06-13T18:02:43.113Z,1.77
2018-06-13T18:05:12.354Z,2.60
2018-06-13T18:07:41.584Z,1.63
2018-06-13T18:10:10.860Z,2.00
2018-06-13T18:12:40.164Z,1.80
2018-06-13T18:15:09.656Z,2.03
2018-06-13T18:17:38.927Z,2.00
2018-06-13T18:20:08.273Z,2.30
2018-06-13T18:22:37.536Z,2.13
2018-06-13T18:25:06.894Z,2.20
2018-06-13T18:27:36.240Z,1.80
2018-06-13T18:30:05.735Z,2.30
2018-06-13T18:32:35.072Z,1.67
2018-06-13T18:35:05.155Z,1.90
2018-06-13T18:37:34.883Z,2.20
2018-06-13T18:40:04.272Z,1.80
2018-06-13T18:42:33.916Z,1.90
2018-06-13T18:45:04.100Z,2.20
2018-06-13T18:47:33.904Z,1.77
2018-06-13T18:50:03.236Z,2.30
2018-06-13T18:52:32.484Z,1.90
2018-06-13T18:55:02.246Z,1.73
2018-06-13T18:57:31.556Z,1.93
2018-06-13T19:00:02.380Z,1.90
2018-06-13T19:02:31.636Z,1.90
2018-06-13T19:05:00.876Z,2.40
2018-06-13T19:07:30.111Z,2.50
2018-06-13T19:09:59.772Z,2.10
2018-06-13T19:12:28.975Z,1.87
2018-06-13T19:14:58.181Z,1.80
2018-06-13T19:17:27.460Z,1.90
2018-06-13T19:19:56.721Z,1.80
2018-06-13T19:22:26.021Z,1.97
2018-06-13T19:24:55.265Z,2.03
2018-06-13T19:27:24.484Z,2.40
2018-06-13T19:29:53.722Z,2.30
2018-06-13T19:32:23.225Z,2.03
2018-06-13T19:34:52.460Z,2.00
2018-06-13T19:37:21.844Z,2.20
2018-06-13T19:39:51.125Z,2.30
2018-06-13T19:42:20.380Z,2.27
2018-06-13T19:44:50.152Z,2.03
2018-06-13T19:47:25.181Z,2.47
2018-06-13T19:49:54.528Z,2.10
2018-06-13T19:52:28.002Z,1.90
2018-06-13T19:55:02.578Z,2.03
2018-06-13T19:57:31.851Z,2.00
2018-06-13T20:00:01.096Z,2.17
2018-06-13T20:04:38.549Z,2.00
2018-06-13T20:07:07.963Z,2.30
2018-06-13T20:09:37.164Z,2.20
2018-06-13T20:12:11.678Z,2.80
2018-06-13T20:16:48.648Z,2.47
2018-06-13T20:19:23.548Z,2.47
2018-06-13T20:21:53.401Z,2.63
2018-06-13T20:24:22.643Z,3.00
2018-06-13T20:26:58.484Z,1.90
2018-06-13T20:29:32.944Z,2.40
2018-06-13T20:32:02.213Z,2.83
2018-06-13T20:34:31.585Z,2.50
2018-06-13T20:37:00.915Z,2.60
2018-06-13T20:39:30.197Z,2.40
2018-06-13T20:41:59.481Z,2.53
2018-06-13T20:44:28.696Z,2.03
2018-06-13T20:46:58.800Z,2.60
2018-06-13T20:49:28.081Z,2.50
2018-06-13T20:51:57.332Z,2.40
2018-06-13T20:54:26.581Z,2.33
2018-06-13T20:56:55.814Z,2.93
2018-06-13T20:59:25.041Z,2.40
2018-06-13T21:01:54.312Z,2.67
2018-06-13T21:04:23.668Z,2.93
2018-06-13T21:06:52.892Z,2.60
2018-06-13T21:09:22.508Z,3.13
2018-06-13T21:11:51.776Z,2.83
2018-06-13T21:14:20.696Z,3.00
2018-06-13T21:16:49.900Z,3.17
2018-06-13T21:19:19.309Z,2.70
2018-06-13T21:21:48.660Z,2.73
2018-06-13T21:24:17.957Z,2.33
2018-06-13T21:26:47.188Z,3.47
2018-06-13T21:29:16.990Z,2.77
2018-06-13T21:31:46.535Z,2.97
2018-06-13T21:34:15.776Z,3.10
2018-06-13T21:36:45.048Z,3.33
2018-06-13T21:39:14.288Z,3.37
2018-06-13T21:41:43.580Z,2.90
2018-06-13T21:44:12.804Z,2.87
2018-06-13T21:46:42.084Z,2.63
2018-06-13T21:49:11.718Z,3.00
2018-06-13T21:51:40.956Z,3.17
2018-06-13T21:54:10.552Z,2.83
2018-06-13T21:56:39.822Z,2.73
2018-06-13T21:59:09.863Z,3.00
2018-06-13T22:01:39.108Z,2.80
2018-06-13T22:04:08.342Z,2.43
2018-06-13T22:06:37.581Z,2.87
2018-06-13T22:09:08.849Z,2.83
2018-06-13T22:11:43.336Z,2.53
2018-06-13T22:14:12.872Z,2.70
2018-06-13T22:16:42.088Z,3.57
2018-06-13T22:19:11.312Z,3.23
2018-06-13T22:21:40.860Z,2.73
2018-06-13T22:24:11.072Z,3.90
2018-06-13T22:26:40.960Z,3.53
2018-06-13T22:29:10.228Z,3.57
2018-06-13T22:31:39.139Z,2.70
2018-06-13T22:34:08.448Z,2.87
2018-06-13T22:36:38.176Z,2.90
2018-06-13T22:39:10.020Z,3.03
2018-06-13T22:41:39.260Z,3.17
2018-06-13T22:44:08.600Z,2.70
2018-06-13T22:46:37.810Z,3.13
2018-06-13T22:49:06.779Z,3.27
2018-06-13T22:51:36.345Z,3.07
2018-06-13T22:54:05.597Z,3.00
2018-06-13T22:56:35.308Z,3.30
2018-06-13T22:59:04.706Z,3.70
2018-06-13T23:01:33.937Z,3.30
2018-06-13T23:04:04.028Z,3.03
2018-06-13T23:06:33.269Z,3.77
2018-06-13T23:09:02.583Z,3.60
2018-06-13T23:11:31.827Z,3.20
2018-06-13T23:14:01.296Z,3.50
2018-06-13T23:16:30.536Z,3.90
2018-06-13T23:18:59.870Z,3.27
2018-06-13T23:21:29.118Z,3.50
2018-06-13T23:23:58.331Z,3.33
2018-06-13T23:26:27.589Z,4.23
2018-06-13T23:28:56.808Z,3.37
2018-06-13T23:31:26.020Z,3.67
2018-06-13T23:33:55.283Z,3.50
2018-06-13T23:36:24.514Z,3.20
2018-06-13T23:38:53.770Z,3.87
2018-06-13T23:41:23.171Z,3.67
2018-06-13T23:43:52.484Z,3.60
2018-06-13T23:46:21.732Z,3.77
2018-06-13T23:48:50.986Z,3.50
2018-06-13T23:51:20.838Z,4.23
2018-06-13T23:53:50.333Z,4.30
2018-06-13T23:56:19.523Z,3.17
2018-06-13T23:58:48.718Z,3.70
